Time;durP1;ratioP1;P1;durP2;ratioP2;P2;SDS_P1;SDS_P2;PMS_P1;PMS_P2;Temp;Humidity;BMP_temperature;BMP_pressure;BME280_temperature;BME280_humidity;BME280_pressure;Samples;Min_cycle;Max_cycle;Signal;HPM_P1;HPM_P2
2021/09/02 06:40:27;;;;;;;8.35;6.42;;;;;;;15.02;96.23;99335.87;1749271;81;21594;-41
2021/09/02 06:42:57;;;;;;;10.45;6.37;;;;;;;15.04;96.08;99345.42;1673373;83;21079;-37
2021/09/02 06:45:26;;;;;;;7.85;6.37;;;;;;;15.10;95.88;99335.14;1703581;82;21646;-37
2021/09/02 06:48:05;;;;;;;9.28;5.60;;;;;;;15.19;95.62;99337.48;1677537;83;21060;-33
2021/09/02 06:50:39;;;;;;;8.48;6.12;;;;;;;15.26;91.49;99340.30;1731270;82;21186;-36
2021/09/02 06:53:13;;;;;;;9.40;6.15;;;;;;;15.32;88.62;99348.45;1722763;82;20970;-33
2021/09/02 06:55:42;;;;;;;10.23;6.55;;;;;;;15.35;86.14;99350.51;1756719;80;21096;-36
2021/09/02 06:58:14;;;;;;;9.65;5.80;;;;;;;15.39;84.93;99354.77;1760375;79;21639;-33
2021/09/02 07:00:51;;;;;;;10.80;6.58;;;;;;;15.41;83.74;99359.98;1729169;81;21873;-37
2021/09/02 07:03:19;;;;;;;9.10;5.85;;;;;;;15.53;84.92;99357.38;1727775;80;21769;-34
2021/09/02 07:05:48;;;;;;;11.50;6.47;;;;;;;15.73;84.77;99364.63;1659458;83;21105;-36
2021/09/02 07:08:15;;;;;;;8.53;6.22;;;;;;;15.89;83.62;99361.85;1705034;83;21547;-34
2021/09/02 07:10:45;;;;;;;8.05;6.15;;;;;;;16.01;82.67;99369.31;1724360;82;21068;-37
2021/09/02 07:13:12;;;;;;;10.85;6.87;;;;;;;16.07;81.95;99375.69;1732460;81;21056;-38
2021/09/02 07:15:39;;;;;;;8.85;6.45;;;;;;;16.03;78.79;99379.80;1690448;81;21600;-36
2021/09/02 07:18:06;;;;;;;8.10;6.37;;;;;;;15.93;79.00;99376.17;1724364;81;21204;-37
2021/09/02 07:20:34;;;;;;;9.75;6.37;;;;;;;15.89;80.97;99369.30;1764854;79;21072;-39
2021/09/02 07:23:12;;;;;;;7.03;6.25;;;;;;;15.92;81.24;99381.05;1762547;79;21067;-34
2021/09/02 07:26:09;;;;;;;9.60;7.67;;;;;;;16.00;80.46;99371.52;1729442;81;21550;-39
2021/09/02 07:28:42;;;;;;;9.85;7.92;;;;;;;16.02;77.69;99380.27;1730377;81;21432;-38
2021/09/02 07:31:18;;;;;;;12.73;6.90;;;;;;;15.94;77.94;99372.64;1757810;80;22088;-38
2021/09/02 07:33:58;;;;;;;8.43;6.33;;;;;;;15.94;78.29;99366.47;1729885;81;21410;-38
2021/09/02 07:36:28;;;;;;;10.50;6.70;;;;;;;15.92;78.54;99377.09;1760293;80;21064;-38
2021/09/02 07:38:55;;;;;;;10.30;6.50;;;;;;;15.99;78.06;99374.22;1730925;79;21315;-38
2021/09/02 07:41:24;;;;;;;7.08;6.08;;;;;;;16.09;78.05;99370.34;1756641;79;21092;-38
2021/09/02 07:43:53;;;;;;;12.55;6.75;;;;;;;16.22;76.88;99370.27;1735372;80;20980;-37
2021/09/02 08:09:58;;;;;;;8.28;6.37;;;;;;;17.13;67.40;99377.72;1785046;78;28587;-36
2021/09/02 08:13:34;;;;;;;7.70;5.60;;;;;;;17.10;67.17;99376.50;1646568;83;21136;-34
2021/09/02 08:20:24;;;;;;;7.87;5.45;;;;;;;17.26;69.25;99375.42;1614357;87;21535;-35
2021/09/02 08:27:07;;;;;;;10.43;6.87;;;;;;;17.25;65.94;99380.31;1603410;87;20154;-37
2021/09/02 08:29:45;;;;;;;10.13;6.50;;;;;;;17.48;66.10;99367.45;1561636;88;21089;-37
2021/09/02 08:32:13;;;;;;;10.95;5.75;;;;;;;17.75;67.59;99373.38;1585885;89;21090;-35
2021/09/02 08:34:45;;;;;;;7.78;6.55;;;;;;;17.89;63.95;99372.28;1561388;89;21125;-35
2021/09/02 08:37:13;;;;;;;8.75;5.30;;;;;;;17.93;64.18;99354.03;1538780;90;21626;-37
2021/09/02 08:47:54;;;;;;;9.33;5.50;;;;;;;18.00;62.31;99366.05;1553425;90;21494;-36
2021/09/02 08:54:28;;;;;;;8.63;6.22;;;;;;;17.88;63.52;99353.84;1575535;87;21203;-36
2021/09/02 08:57:04;;;;;;;10.45;5.72;;;;;;;17.98;63.92;99349.86;1582888;88;21189;-38
2021/09/02 08:59:42;;;;;;;8.20;6.00;;;;;;;17.95;62.61;99360.56;1587222;89;21044;-37
2021/09/02 09:02:32;;;;;;;6.95;5.78;;;;;;;18.00;63.51;99360.75;1577835;88;21526;-37
2021/09/02 09:09:27;;;;;;;8.40;6.60;;;;;;;18.18;61.71;99359.06;1591502;88;21609;-38
2021/09/02 09:19:50;;;;;;;9.58;7.35;;;;;;;18.31;62.11;99360.20;1524978;90;21211;-35
2021/09/02 09:22:19;;;;;;;9.25;6.90;;;;;;;18.13;62.16;99371.64;1547413;89;21566;-36
2021/09/02 09:24:50;;;;;;;7.85;5.72;;;;;;;17.94;62.64;99375.59;1545929;90;21153;-38
2021/09/02 09:27:42;;;;;;;14.07;5.85;;;;;;;17.90;61.66;99351.51;1589594;88;21203;-36
2021/09/02 09:30:33;;;;;;;8.28;6.00;;;;;;;17.91;62.22;99362.48;1559639;88;21112;-38
2021/09/02 09:33:36;;;;;;;9.80;6.12;;;;;;;18.01;63.09;99353.20;1544504;90;21221;-37
2021/09/02 09:36:12;;;;;;;14.53;4.92;;;;;;;18.10;63.20;99359.89;1544693;90;21600;-37
2021/09/02 09:39:30;;;;;;;5.80;4.47;;;;;;;17.94;61.40;99367.65;1529596;91;21207;-38
2021/09/02 09:47:52;;;;;;;5.42;4.78;;;;;;;17.82;62.65;99354.97;1507844;93;21796;-37
2021/09/02 09:50:27;;;;;;;5.33;3.75;;;;;;;18.08;63.22;99355.11;1487000;93;21144;-38
2021/09/02 09:53:37;;;;;;;10.23;4.15;;;;;;;18.19;60.49;99365.21;1499227;93;21472;-36
2021/09/02 10:04:37;;;;;;;5.08;3.15;;;;;;;18.49;55.55;99369.55;1457269;95;21209;-35
2021/09/02 10:32:58;;;;;;;5.55;4.28;;;;;;;17.07;59.63;99418.07;1509010;88;21262;-36
2021/09/02 10:35:52;;;;;;;10.43;4.20;;;;;;;17.12;59.19;99404.22;1558950;90;21128;-36
2021/09/02 10:54:14;;;;;;;11.35;3.98;;;;;;;18.45;53.89;99437.70;1534394;87;21159;-37
2021/09/02 10:57:21;;;;;;;11.63;3.30;;;;;;;18.29;51.58;99444.61;1586794;87;21340;-37
2021/09/02 11:04:32;;;;;;;7.35;3.27;;;;;;;18.32;47.17;99441.81;1570054;89;21062;-36
2021/09/02 11:11:41;;;;;;;9.40;3.42;;;;;;;18.76;46.99;99450.88;1495507;93;21172;-36
2021/09/02 11:20:09;;;;;;;7.45;3.00;;;;;;;18.67;49.58;99449.94;1535101;92;21165;-38
2021/09/02 11:22:45;;;;;;;7.80;2.52;;;;;;;18.36;48.96;99483.13;1530788;91;21254;-38
2021/09/02 11:25:14;;;;;;;10.00;3.25;;;;;;;17.81;47.23;99479.78;1466717;95;21944;-38
2021/09/02 11:27:42;;;;;;;5.25;2.25;;;;;;;17.46;47.77;99480.36;1512775;92;21195;-37
2021/09/02 11:30:25;;;;;;;8.00;2.77;;;;;;;17.22;47.36;99488.80;1485116;95;21637;-38
2021/09/02 11:32:56;;;;;;;10.35;2.60;;;;;;;17.10;48.91;99474.28;1499901;93;21239;-39
2021/09/02 11:35:24;;;;;;;;;;;;;;;17.08;48.44;99497.74;1497093;94;21141;-39
2021/09/02 11:38:08;;;;;;;5.22;2.72;;;;;;;17.12;49.10;99484.81;1512657;92;20485;-36
